Latest Coastal Weather Observations for Gunn Point

IDD60701

Issued at 1:32 am CST Thursday 1 September 2016 (issued every 10 minutes, with the page automatically refreshed every 10 minutes)

About coastal observations | Map of coastal stations | Coastal observations for NT | Marine services | Other Formats
Station Details ID: 014023 Name: GUNN POINT Lat: -12.25 Lon: 131.04 Height: 25.0 m
Data from the previous 72 hours. | See also: Recent months for locations in Northern Territory
Date/Time
CST
Temp
°C
Wind Pressure Rain since
9am
mm
Weather Cloud Vis
km
Sea
Height
m
Swell
Dir  Spd
kts
Gust
kts
hPa Trend Height
m
Period
s
Dir
01/01:30am 26.5 WSW 1 4 1012.7 - 0.0 - - - - - - -
01/01:00am 26.5 WSW 3 5 1013.0 - 0.0 - - - - - - -
01/12:30am 26.7 WSW 5 7 1013.2 - 0.0 - - - - - - -
01/12:00am 26.8 W 4 8 1013.3 - 0.0 - - - - - - -
 
Date/Time
CST
Temp
°C
Wind Pressure Rain since
9am
mm
Weather Cloud Vis
km
Sea
Height
m
Swell
Dir  Spd
kts
Gust
kts
hPa Trend Height
m
Period
s
Dir
31/11:30pm 26.7 W 4 7 1013.4 - 0.0 - - - - - - -
31/11:00pm 26.7 W 5 9 1013.3 - 0.0 - - - - - - -
31/10:30pm 26.8 WNW 4 8 1013.4 - 0.0 - - - - - - -
31/10:00pm 26.9 WNW 5 9 1013.4 - 0.0 - - - - - - -
31/09:30pm 25.5 NNW 2 3 1013.1 - 0.0 - - - - - - -
31/09:00pm 24.4 CALM 0 0 1012.5 - 0.0 - - - - - - -
31/08:30pm 24.9 CALM 0 0 1012.2 - 0.0 - - - - - - -
31/08:00pm 25.5 CALM 0 0 1011.9 - 0.0 - - - - - - -
31/07:30pm 26.6 CALM 0 2 1011.7 - 0.0 - - - - - - -
31/07:00pm 27.6 NNE 1 2 1011.6 - 0.0 - - - - - - -
31/06:30pm 28.5 N 4 7 1011.2 - 0.0 - - - - - - -
31/06:00pm 29.5 NNE 3 8 1011.0 - 0.0 - - - - - - -
31/05:30pm 30.4 NNE 5 7 1011.0 - 0.0 - - - - - - -
31/05:00pm 30.3 NNE 7 12 1010.9 - 0.0 - - - - - - -
31/04:30pm 31.4 NE 6 10 1010.8 - 0.0 - - - - - - -
31/04:00pm 31.8 NE 6 13 1011.0 - 0.0 - - - - - - -
31/03:30pm 31.8 NE 6 12 1011.2 - 0.0 - - - - - - -
31/03:00pm 31.4 NE 9 16 1011.5 - 0.0 - - - - - - -
31/02:30pm 32.0 NNE 8 14 1012.0 - 0.0 - - - - - - -
31/02:00pm 31.9 NE 7 13 1012.4 - 0.0 - - - - - - -
31/01:30pm 31.6 NNE 7 13 1013.0 - 0.0 - - - - - - -
31/01:00pm 32.3 ENE 8 17 1013.6 - 0.0 - - - - - - -
31/12:30pm 31.5 NE 8 16 1014.0 - 0.0 - - - - - - -
31/12:00pm 32.4 ENE 8 13 1014.7 - 0.0 - - - - - - -
31/11:30am 32.3 E 7 12 1015.1 - 0.0 - - - - - - -
31/11:00am 31.1 E 7 13 1015.3 - 0.0 - - - - - - -
31/10:30am 30.9 ESE 6 12 1015.7 - 0.0 - - - - - - -
31/10:00am 29.4 ENE 6 10 1015.9 - 0.0 - - - - - - -
31/09:30am 29.1 ENE 4 7 1016.0 - 0.0 - - - - - - -
31/09:00am 27.2 E 3 6 1016.1 - 0.0 - - - - - - -
31/08:30am 26.0 ESE 2 4 1015.8 - 0.0 - - - - - - -
31/08:00am 25.2 SE 3 5 1015.6 - 0.0 - - - - - - -
31/07:30am 23.6 SE 2 3 1015.3 - 0.0 - - - - - - -
31/07:00am 22.9 SE 1 2 1015.0 - 0.0 - - - - - - -
31/06:30am 23.4 SSE 1 2 1014.7 - 0.0 - - - - - - -
31/06:00am 23.0 SE 3 4 1014.5 - 0.0 - - - - - - -
31/05:30am 22.6 CALM 0 0 1014.2 - 0.0 - - - - - - -
31/05:00am 22.4 E 1 1 1014.0 - 0.0 - - - - - - -
31/04:30am 22.7 CALM 0 1 1013.8 - 0.0 - - - - - - -
31/04:00am 22.5 CALM 0 1 1014.0 - 0.0 - - - - - - -
31/03:30am 22.1 CALM 0 0 1014.0 - 0.0 - - - - - - -
31/03:00am 22.0 CALM 0 0 1014.0 - 0.0 - - - - - - -
31/02:30am 22.2 CALM 0 0 1014.1 - 0.0 - - - - - - -
31/02:00am 22.0 CALM 0 0 1014.1 - 0.0 - - - - - - -
31/01:30am 22.3 CALM 0 0 1014.1 - 0.0 - - - - - - -
31/01:00am 22.7 CALM 0 0 1014.2 - 0.0 - - - - - - -
31/12:30am 22.5 CALM 0 0 1014.3 - 0.0 - - - - - - -
31/12:00am 22.6 CALM 0 0 1014.4 - 0.0 - - - - - - -
 
Date/Time
CST
Temp
°C
Wind Pressure Rain since
9am
mm
Weather Cloud Vis
km
Sea
Height
m
Swell
Dir  Spd
kts
Gust
kts
hPa Trend Height
m
Period
s
Dir
30/11:30pm 22.9 CALM 0 0 1014.4 - 0.0 - - - - - - -
30/11:00pm 23.3 CALM 0 0 1014.2 - 0.0 - - - - - - -
30/10:30pm 23.9 NNE 1 2 1014.0 - 0.0 - - - - - - -
30/10:00pm 23.3 NE 1 2 1013.9 - 0.0 - - - - - - -
30/09:30pm 23.8 ENE 1 3 1013.8 - 0.0 - - - - - - -
30/09:00pm 23.8 CALM 0 0 1013.5 - 0.0 - - - - - - -
30/08:30pm 24.5 CALM 0 0 1013.0 - 0.0 - - - - - - -
30/08:00pm 25.5 CALM 0 0 1012.7 - 0.0 - - - - - - -
30/07:30pm 26.6 NE 1 3 1012.4 - 0.0 - - - - - - -
30/07:00pm 27.6 NNE 1 4 1012.0 - 0.0 - - - - - - -
30/06:30pm 28.7 NNE 2 6 1011.8 - 0.0 - - - - - - -
30/06:00pm 29.7 NNE 5 11 1011.7 - 0.0 - - - - - - -
30/05:30pm 30.1 NNE 7 11 1011.5 - 0.0 - - - - - - -
30/05:00pm 30.4 NNE 7 12 1011.5 - 0.0 - - - - - - -
30/04:30pm 31.5 NE 5 12 1011.4 - 0.0 - - - - - - -
30/04:00pm 31.3 NE 7 12 1011.3 - 0.0 - - - - - - -
30/03:30pm 31.1 NNE 7 13 1011.5 - 0.0 - - - - - - -
30/03:00pm 31.5 NE 8 13 1011.7 - 0.0 - - - - - - -
30/02:30pm 31.3 NNE 7 12 1012.1 - 0.0 - - - - - - -
30/02:00pm 31.3 NE 8 15 1012.6 - 0.0 - - - - - - -
30/01:30pm 31.0 NE 6 13 1013.1 - 0.0 - - - - - - -
30/01:00pm 29.9 E 6 12 1013.7 - 0.0 - - - - - - -
30/12:30pm 30.6 ENE 5 10 1014.3 - 0.0 - - - - - - -
30/12:00pm 29.6 ENE 6 11 1015.0 - 0.0 - - - - - - -
30/11:30am 29.2 E 5 9 1015.4 - 0.0 - - - - - - -
30/11:00am 28.5 NE 4 7 1015.9 - 0.0 - - - - - - -
30/10:30am 29.6 E 7 11 1016.3 - 0.0 - - - - - - -
30/10:00am 28.1 ENE 5 10 1016.5 - 0.0 - - - - - - -
30/09:30am 27.7 NE 5 11 1016.5 - 0.0 - - - - - - -
30/09:00am 27.1 E 5 8 1016.3 - 0.0 - - - - - - -
30/08:30am 26.3 ESE 4 7 1015.9 - 0.0 - - - - - - -
30/08:00am 24.2 ESE 3 4 1015.7 - 0.0 - - - - - - -
30/07:30am 21.7 E 1 2 1015.4 - 0.0 - - - - - - -
30/07:00am 20.4 ESE 2 3 1015.1 - 0.0 - - - - - - -
30/06:30am 20.7 CALM 0 1 1014.6 - 0.0 - - - - - - -
30/06:00am 21.1 CALM 0 0 1014.3 - 0.0 - - - - - - -
30/05:30am 21.5 CALM 0 0 1013.9 - 0.0 - - - - - - -
30/05:00am 21.8 CALM 0 0 1013.6 - 0.0 - - - - - - -
30/04:30am 22.3 CALM 0 0 1013.5 - 0.0 - - - - - - -
30/04:00am 22.1 CALM 0 0 1013.5 - 0.0 - - - - - - -
30/03:30am 22.1 CALM 0 0 1013.5 - 0.0 - - - - - - -
30/03:00am 22.5 CALM 0 0 1013.5 - 0.0 - - - - - - -
30/02:30am 22.2 CALM 0 0 1013.7 - 0.0 - - - - - - -
30/02:00am 21.8 CALM 0 0 1013.9 - 0.0 - - - - - - -
30/01:30am 21.7 CALM 0 0 1013.7 - 0.0 - - - - - - -
30/01:00am 22.6 CALM 0 0 1013.6 - 0.0 - - - - - - -
30/12:30am 23.8 CALM 0 0 1013.6 - 0.0 - - - - - - -
30/12:00am 24.8 NNE 2 3 1013.8 - 0.0 - - - - - - -
 
Date/Time
CST
Temp
°C
Wind Pressure Rain since
9am
mm
Weather Cloud Vis
km
Sea
Height
m
Swell
Dir  Spd
kts
Gust
kts
hPa Trend Height
m
Period
s
Dir
29/11:30pm 24.7 N 1 3 1013.8 - 0.0 - - - - - - -
29/11:00pm 24.8 N 1 3 1013.7 - 0.0 - - - - - - -
29/10:30pm 25.5 N 2 3 1013.3 - 0.0 - - - - - - -
29/10:00pm 25.7 NNE 3 6 1013.1 - 0.0 - - - - - - -
29/09:30pm 25.4 NNE 2 4 1012.9 - 0.0 - - - - - - -
29/09:00pm 25.3 NNE 2 4 1012.5 - 0.0 - - - - - - -
29/08:30pm 25.4 NNE 2 3 1012.3 - 0.0 - - - - - - -
29/08:00pm 25.6 NE 1 3 1012.1 - 0.0 - - - - - - -
29/07:30pm 26.1 N 2 4 1011.6 - 0.0 - - - - - - -
29/07:00pm 26.7 NE 2 5 1011.4 - 0.0 - - - - - - -
29/06:30pm 27.4 NE 5 9 1011.0 - 0.0 - - - - - - -
29/06:00pm 28.1 NE 5 9 1010.8 - 0.0 - - - - - - -
29/05:30pm 28.9 NE 6 11 1010.7 - 0.0 - - - - - - -
29/05:00pm 29.5 ENE 7 13 1010.6 - 0.0 - - - - - - -
29/04:30pm 29.7 NE 8 15 1010.6 - 0.0 - - - - - - -
29/04:00pm 30.3 NNE 8 14 1010.7 - 0.0 - - - - - - -
29/03:30pm 30.8 NE 7 16 1010.7 - 0.0 - - - - - - -
29/03:00pm 30.1 NNE 8 16 1011.1 - 0.0 - - - - - - -
29/02:30pm 30.4 NNE 7 11 1011.5 - 0.0 - - - - - - -
29/02:00pm 31.5 NE 7 14 1012.0 - 0.0 - - - - - - -
29/01:30pm 30.2 NNE 9 15 1012.4 - 0.0 - - - - - - -
29/01:00pm 29.8 NE 8 14 1012.9 - 0.0 - - - - - - -
29/12:30pm 31.0 NNE 6 12 1013.2 - 0.0 - - - - - - -
29/12:00pm 30.2 NE 5 10 1013.6 - 0.0 - - - - - - -
29/11:30am 29.3 NNE 6 11 1014.1 - 0.0 - - - - - - -
29/11:00am 29.7 NE 6 10 1014.6 - 0.0 - - - - - - -
29/10:30am 28.7 NE 6 11 1015.0 - 0.0 - - - - - - -
29/10:00am 28.4 NE 6 11 1015.2 - 0.0 - - - - - - -
29/09:30am 27.4 ENE 4 7 1015.2 - 0.0 - - - - - - -
29/09:00am 26.8 E 3 6 1015.0 - 0.0 - - - - - - -
29/08:30am 24.3 E 2 3 1014.9 - 0.0 - - - - - - -
29/08:00am 22.1 E 2 4 1014.7 - 0.0 - - - - - - -
29/07:30am 17.6 CALM 0 2 1014.3 - 0.0 - - - - - - -
29/07:00am 16.5 CALM 0 0 1013.8 - 0.0 - - - - - - -
29/06:30am 16.6 CALM 0 0 1013.6 - 0.0 - - - - - - -
29/06:00am 16.1 CALM 0 0 1013.2 - 0.0 - - - - - - -
29/05:30am 16.5 CALM 0 0 1012.8 - 0.0 - - - - - - -
29/05:00am 16.5 CALM 0 0 1012.5 - 0.0 - - - - - - -
29/04:30am 16.1 CALM 0 1 1012.3 - 0.0 - - - - - - -
29/04:00am 16.7 CALM 0 0 1012.1 - 0.0 - - - - - - -
29/03:30am 17.1 CALM 0 0 1012.2 - 0.0 - - - - - - -
29/03:00am 17.2 CALM 0 0 1012.5 - 0.0 - - - - - - -
29/02:30am 17.4 CALM 0 0 1012.6 - 0.0 - - - - - - -
29/02:00am 17.6 CALM 0 0 1012.9 - 0.0 - - - - - - -

Other Formats:

Comma delimited format used in spreadsheet applications
http://www.bom.gov.au/fwo/IDD60701/IDD60701.99501.axf

JavaScript Object Notation format (JSON) in row-major order
http://www.bom.gov.au/fwo/IDD60701/IDD60701.99501.json